createdAt,value
2022-12-17T00:00:05.250Z,20.10
2022-12-17T00:02:52.472Z,20.10
2022-12-17T00:05:39.105Z,20.10
2022-12-17T00:08:24.545Z,20.00
2022-12-17T00:11:09.920Z,20.00
2022-12-17T00:13:55.599Z,20.00
2022-12-17T00:16:41.909Z,20.00
2022-12-17T00:19:27.480Z,20.00
2022-12-17T00:22:12.870Z,20.00
2022-12-17T00:24:58.472Z,20.00
2022-12-17T00:27:43.760Z,20.00
2022-12-17T00:30:31.803Z,20.00
2022-12-17T00:33:16.915Z,20.00
2022-12-17T00:36:02.617Z,20.00
2022-12-17T00:38:47.913Z,20.00
2022-12-17T00:41:33.507Z,19.90
2022-12-17T00:44:18.911Z,19.90
2022-12-17T00:47:04.317Z,19.90
2022-12-17T00:49:50.094Z,19.90
2022-12-17T00:52:35.455Z,19.90
2022-12-17T00:55:21.026Z,19.90
2022-12-17T00:58:14.647Z,19.90
2022-12-17T01:01:00.593Z,19.90
2022-12-17T01:03:47.305Z,19.90
2022-12-17T01:06:32.851Z,19.90
2022-12-17T01:09:19.667Z,19.80
2022-12-17T01:12:06.307Z,19.80
2022-12-17T01:14:51.935Z,19.80
2022-12-17T01:17:37.148Z,19.80
2022-12-17T01:20:22.870Z,19.70
2022-12-17T01:23:08.191Z,19.70
2022-12-17T01:25:53.350Z,19.60
2022-12-17T01:28:45.461Z,19.60
2022-12-17T01:31:34.970Z,19.60
2022-12-17T01:34:21.092Z,19.60
2022-12-17T01:37:06.666Z,19.50
2022-12-17T01:39:52.503Z,19.50
2022-12-17T01:42:37.856Z,19.50
2022-12-17T01:45:25.234Z,19.50
2022-12-17T01:48:16.046Z,19.50
2022-12-17T01:51:04.926Z,19.50
2022-12-17T01:53:55.123Z,19.40
2022-12-17T01:56:44.278Z,19.40
2022-12-17T01:59:31.857Z,19.40
2022-12-17T02:02:17.823Z,19.40
2022-12-17T02:05:03.251Z,19.30
2022-12-17T02:08:27.232Z,19.30
2022-12-17T02:11:43.659Z,19.30
2022-12-17T02:14:41.598Z,19.30
2022-12-17T02:17:30.452Z,19.20
2022-12-17T02:20:23.076Z,19.20
2022-12-17T02:23:34.139Z,19.20
2022-12-17T02:26:29.278Z,19.20
2022-12-17T02:29:14.798Z,19.10
2022-12-17T02:32:03.174Z,19.10
2022-12-17T02:34:48.960Z,19.10
2022-12-17T02:37:34.307Z,19.10
2022-12-17T02:40:20.949Z,19.00
2022-12-17T02:43:07.542Z,19.00
2022-12-17T02:45:57.483Z,19.00
2022-12-17T02:48:43.366Z,19.00
2022-12-17T02:51:29.568Z,19.00
2022-12-17T02:54:14.924Z,19.00
2022-12-17T02:57:00.686Z,18.90
2022-12-17T02:59:46.143Z,18.90
2022-12-17T03:02:34.676Z,18.90
2022-12-17T03:05:43.982Z,18.90
2022-12-17T03:08:26.297Z,18.90
2022-12-17T03:11:11.793Z,18.90
2022-12-17T03:13:57.043Z,18.80
2022-12-17T03:16:42.318Z,18.80
2022-12-17T03:19:28.495Z,18.80
2022-12-17T03:22:13.931Z,18.80
2022-12-17T03:24:59.687Z,18.80
2022-12-17T03:27:45.338Z,18.80
2022-12-17T03:30:35.491Z,18.80
2022-12-17T03:33:21.839Z,18.80
2022-12-17T03:36:07.104Z,18.80
2022-12-17T03:38:52.323Z,18.70
2022-12-17T03:41:37.567Z,18.70
2022-12-17T03:44:23.042Z,18.70
2022-12-17T03:47:08.313Z,18.70
2022-12-17T03:49:53.712Z,18.70
2022-12-17T03:52:39.003Z,18.70
2022-12-17T03:55:24.363Z,18.60
2022-12-17T03:58:09.898Z,18.60
2022-12-17T04:00:55.378Z,18.60
2022-12-17T04:03:40.835Z,18.60
2022-12-17T04:06:26.558Z,18.50
2022-12-17T04:09:11.796Z,18.50
2022-12-17T04:11:57.299Z,18.50
2022-12-17T04:14:42.752Z,18.50
2022-12-17T04:17:28.215Z,18.50
2022-12-17T04:20:13.675Z,18.50
2022-12-17T04:22:58.956Z,18.50
2022-12-17T04:25:44.376Z,18.40
2022-12-17T04:28:29.654Z,18.40
2022-12-17T04:31:15.310Z,18.40
2022-12-17T04:34:00.747Z,18.40
2022-12-17T04:36:45.987Z,18.40
2022-12-17T04:39:31.562Z,18.40
2022-12-17T04:42:18.724Z,18.30
2022-12-17T04:45:04.296Z,18.30
2022-12-17T04:47:49.569Z,18.30
2022-12-17T04:50:34.898Z,18.30
2022-12-17T04:53:21.367Z,18.30
2022-12-17T04:56:07.143Z,18.30
2022-12-17T04:58:52.739Z,18.20
2022-12-17T05:01:39.279Z,18.20
2022-12-17T05:04:24.946Z,18.20
2022-12-17T05:07:30.204Z,18.20
2022-12-17T05:10:15.357Z,18.20
2022-12-17T05:13:01.052Z,18.10
2022-12-17T05:15:52.791Z,18.10
2022-12-17T05:18:38.895Z,18.00
2022-12-17T05:21:25.001Z,18.10
2022-12-17T05:24:12.595Z,18.00
2022-12-17T05:26:57.831Z,18.00
2022-12-17T05:29:43.430Z,18.00
2022-12-17T05:32:28.723Z,18.00
2022-12-17T05:35:14.162Z,18.00
2022-12-17T05:37:59.553Z,18.00
2022-12-17T05:40:45.160Z,18.00
2022-12-17T05:43:31.510Z,18.00
2022-12-17T05:46:30.469Z,17.90
2022-12-17T05:49:16.141Z,17.90
2022-12-17T05:52:01.628Z,17.90
2022-12-17T05:54:47.180Z,17.90
2022-12-17T05:57:32.376Z,17.80
2022-12-17T06:00:17.627Z,17.80
2022-12-17T06:03:03.051Z,17.80
2022-12-17T06:05:48.408Z,17.80
2022-12-17T06:08:33.727Z,17.80
2022-12-17T06:11:19.271Z,17.80
2022-12-17T06:14:05.919Z,17.80
2022-12-17T06:16:51.401Z,17.80
2022-12-17T06:19:36.905Z,17.70
2022-12-17T06:22:22.199Z,17.70
2022-12-17T06:25:07.364Z,17.70
2022-12-17T06:27:52.683Z,17.70
2022-12-17T06:30:37.803Z,17.70
2022-12-17T06:33:28.249Z,17.70
2022-12-17T06:36:21.740Z,17.60
2022-12-17T06:39:08.655Z,17.60
2022-12-17T06:42:02.028Z,17.60
2022-12-17T06:44:49.922Z,17.60
2022-12-17T06:47:35.268Z,17.60
2022-12-17T06:50:20.504Z,17.60
2022-12-17T06:53:05.871Z,17.60
2022-12-17T06:55:51.071Z,17.60
2022-12-17T06:58:36.367Z,17.50
2022-12-17T07:01:22.092Z,17.50
2022-12-17T07:04:07.498Z,17.50
2022-12-17T07:06:52.886Z,17.50
2022-12-17T07:09:38.167Z,17.50
2022-12-17T07:12:23.573Z,17.40
2022-12-17T07:15:08.890Z,17.50
2022-12-17T07:17:54.335Z,17.40
2022-12-17T07:20:39.691Z,17.30
2022-12-17T07:23:25.240Z,17.30
2022-12-17T07:26:10.516Z,17.10
2022-12-17T07:28:55.633Z,17.10
2022-12-17T07:31:41.012Z,17.00
2022-12-17T07:34:26.356Z,17.00
2022-12-17T07:37:13.924Z,17.10
2022-12-17T07:40:02.685Z,17.10
2022-12-17T07:42:48.001Z,17.20
2022-12-17T07:45:33.270Z,17.20
2022-12-17T07:48:18.607Z,17.20
2022-12-17T07:51:08.331Z,17.30
2022-12-17T07:53:53.611Z,17.40
2022-12-17T07:56:39.110Z,17.50
2022-12-17T07:59:24.419Z,17.60
2022-12-17T08:02:10.305Z,17.60
2022-12-17T08:04:55.993Z,17.70
2022-12-17T08:07:41.373Z,17.80
2022-12-17T08:10:27.056Z,17.90
2022-12-17T08:13:20.960Z,18.00
2022-12-17T08:16:06.992Z,18.10
2022-12-17T08:18:52.844Z,18.10
2022-12-17T08:21:38.334Z,18.20
2022-12-17T08:24:23.704Z,18.30
2022-12-17T08:27:09.066Z,18.30
2022-12-17T08:29:54.472Z,18.30
2022-12-17T08:32:40.338Z,18.20
2022-12-17T08:35:26.159Z,18.20
2022-12-17T08:38:11.474Z,18.20
2022-12-17T08:40:56.799Z,18.30
2022-12-17T08:43:41.919Z,18.30
2022-12-17T08:46:27.328Z,18.40
2022-12-17T08:49:12.681Z,18.50
2022-12-17T08:51:58.093Z,18.50
2022-12-17T08:54:43.476Z,18.60
2022-12-17T08:57:32.456Z,18.70
2022-12-17T09:00:18.214Z,18.70
2022-12-17T09:03:04.231Z,18.70
2022-12-17T09:05:49.898Z,18.80
2022-12-17T09:08:35.392Z,18.90
2022-12-17T09:11:20.711Z,18.90
2022-12-17T09:14:05.960Z,19.00
2022-12-17T09:16:51.377Z,19.10
2022-12-17T09:19:36.657Z,19.10
2022-12-17T09:22:21.980Z,19.20
2022-12-17T09:25:07.362Z,19.20
2022-12-17T09:27:52.617Z,19.30
2022-12-17T09:30:37.989Z,19.30
2022-12-17T09:33:23.374Z,19.40
2022-12-17T09:36:08.708Z,19.40
2022-12-17T09:38:53.994Z,19.40
2022-12-17T09:42:03.896Z,19.50
2022-12-17T09:45:03.222Z,19.50
2022-12-17T09:48:20.546Z,19.40
2022-12-17T09:51:09.771Z,19.50
2022-12-17T09:54:00.957Z,19.50
2022-12-17T09:56:48.947Z,19.50
2022-12-17T09:59:46.876Z,19.40
2022-12-17T10:02:41.610Z,19.40
2022-12-17T10:05:42.145Z,19.40
2022-12-17T10:08:32.302Z,19.40
2022-12-17T10:11:34.201Z,19.50
2022-12-17T10:14:21.517Z,19.50
2022-12-17T10:17:11.686Z,19.40
2022-12-17T10:19:59.006Z,19.50
2022-12-17T10:22:44.579Z,19.50
2022-12-17T10:25:41.506Z,19.50
2022-12-17T10:28:32.492Z,19.60
2022-12-17T10:31:18.424Z,19.60
2022-12-17T10:34:03.698Z,19.70
2022-12-17T10:36:49.782Z,19.70
2022-12-17T10:39:44.840Z,19.70
2022-12-17T10:42:47.977Z,19.70
2022-12-17T10:45:42.567Z,19.80
2022-12-17T10:48:45.315Z,19.80
2022-12-17T10:51:56.013Z,19.80
2022-12-17T10:54:49.563Z,19.90
2022-12-17T10:57:50.445Z,19.80
2022-12-17T11:00:35.772Z,19.90
2022-12-17T11:03:22.137Z,19.90
2022-12-17T11:06:10.067Z,19.90
2022-12-17T11:08:55.929Z,20.00
2022-12-17T11:11:42.217Z,20.00
2022-12-17T11:14:29.764Z,20.00
2022-12-17T11:17:19.104Z,20.00
2022-12-17T11:20:17.402Z,20.00
2022-12-17T11:23:03.760Z,20.00
2022-12-17T11:25:58.214Z,20.00
2022-12-17T11:28:46.475Z,20.00
2022-12-17T11:31:32.087Z,20.00
2022-12-17T11:34:39.374Z,20.00
2022-12-17T11:37:46.330Z,20.00
2022-12-17T11:40:40.018Z,20.00
2022-12-17T11:43:36.333Z,20.00
2022-12-17T11:46:41.920Z,20.00
2022-12-17T11:49:48.551Z,20.00
2022-12-17T11:53:09.768Z,20.00
2022-12-17T11:56:05.147Z,20.00
2022-12-17T11:58:59.549Z,19.90
2022-12-17T12:02:01.220Z,19.90
2022-12-17T12:04:58.854Z,19.90
2022-12-17T12:08:19.206Z,19.90
2022-12-17T12:11:29.737Z,19.90
2022-12-17T12:14:51.715Z,19.90
2022-12-17T12:17:37.313Z,19.80
2022-12-17T12:20:32.510Z,19.80
2022-12-17T12:23:36.210Z,19.80
2022-12-17T12:26:33.100Z,19.90
2022-12-17T12:29:40.408Z,19.90
2022-12-17T12:32:40.024Z,19.80
2022-12-17T12:35:33.194Z,19.90
2022-12-17T12:38:19.321Z,19.90
2022-12-17T12:41:37.810Z,19.90
2022-12-17T12:44:35.768Z,20.00
2022-12-17T12:47:28.286Z,19.90
2022-12-17T12:50:41.455Z,19.90
2022-12-17T12:53:30.428Z,19.90
2022-12-17T12:56:16.246Z,19.90
2022-12-17T12:59:01.634Z,19.90
2022-12-17T13:01:55.348Z,19.90
2022-12-17T13:04:55.136Z,20.00
2022-12-17T13:07:30.166Z,20.00
2022-12-17T13:09:58.534Z,20.00
2022-12-17T13:12:30.131Z,20.00
2022-12-17T13:15:10.466Z,20.00
2022-12-17T13:17:40.277Z,20.00
2022-12-17T13:20:33.367Z,20.10
2022-12-17T13:23:15.216Z,20.20
2022-12-17T13:25:42.598Z,20.20
2022-12-17T13:28:29.516Z,20.20
2022-12-17T13:31:18.029Z,20.30
2022-12-17T13:34:14.195Z,20.30
2022-12-17T13:37:01.861Z,20.30
2022-12-17T13:39:43.002Z,20.40
2022-12-17T13:42:30.001Z,20.40
2022-12-17T13:44:57.621Z,20.50
2022-12-17T13:47:27.796Z,20.50
2022-12-17T13:50:32.360Z,20.60
2022-12-17T13:52:43.648Z,20.50
2022-12-17T13:55:19.560Z,20.50
2022-12-17T13:57:47.192Z,20.50
2022-12-17T14:00:26.500Z,20.40
2022-12-17T14:02:54.615Z,20.40
2022-12-17T14:05:37.612Z,20.40
2022-12-17T14:08:05.581Z,20.40
2022-12-17T14:10:32.732Z,20.30
2022-12-17T14:13:06.890Z,20.30
2022-12-17T14:15:34.342Z,20.30
2022-12-17T14:18:01.663Z,20.20
2022-12-17T14:20:34.449Z,20.20
2022-12-17T14:23:08.495Z,20.20
2022-12-17T14:25:40.452Z,20.10
2022-12-17T14:28:37.191Z,20.10
2022-12-17T14:31:31.603Z,20.10
2022-12-17T14:34:11.469Z,20.00
2022-12-17T14:36:43.509Z,19.90
2022-12-17T14:39:30.080Z,19.90
2022-12-17T14:42:26.721Z,19.90
2022-12-17T14:45:21.768Z,19.80
2022-12-17T14:48:04.267Z,19.80
2022-12-17T14:50:35.796Z,19.70
2022-12-17T14:53:25.879Z,19.70
2022-12-17T14:55:58.309Z,19.70
2022-12-17T14:58:26.531Z,19.70
2022-12-17T15:01:13.976Z,19.60
2022-12-17T15:03:43.300Z,19.60
2022-12-17T15:06:10.674Z,19.60
2022-12-17T15:08:41.230Z,19.50
2022-12-17T15:11:11.288Z,19.40
2022-12-17T15:13:38.228Z,19.40
2022-12-17T15:16:05.486Z,19.40
2022-12-17T15:18:32.348Z,19.40
2022-12-17T15:20:59.413Z,19.40
2022-12-17T15:23:26.333Z,19.40
2022-12-17T15:25:54.295Z,19.40
2022-12-17T15:28:21.760Z,19.40
2022-12-17T15:30:49.675Z,19.40
2022-12-17T15:33:17.141Z,19.30
2022-12-17T15:35:44.625Z,19.30
2022-12-17T15:38:12.825Z,19.30
2022-12-17T15:40:39.944Z,19.30
2022-12-17T15:43:11.288Z,19.30
2022-12-17T15:45:48.598Z,19.30
2022-12-17T15:48:18.109Z,19.20
2022-12-17T15:50:45.108Z,19.20
2022-12-17T15:53:12.081Z,19.20
2022-12-17T15:55:39.395Z,19.20
2022-12-17T15:58:07.333Z,19.20
2022-12-17T16:00:34.376Z,19.20
2022-12-17T16:03:01.369Z,19.20
2022-12-17T16:05:28.604Z,19.10
2022-12-17T16:07:59.038Z,19.20
2022-12-17T16:10:26.050Z,19.20
2022-12-17T16:12:52.870Z,19.20
2022-12-17T16:15:19.752Z,19.20
2022-12-17T16:17:46.558Z,19.20
2022-12-17T16:20:13.435Z,19.20
2022-12-17T16:22:40.411Z,19.20
2022-12-17T16:25:07.652Z,19.20
2022-12-17T16:27:34.528Z,19.20
2022-12-17T16:30:01.454Z,19.20
2022-12-17T16:32:32.957Z,19.20
2022-12-17T16:35:02.918Z,19.30
2022-12-17T16:37:29.742Z,19.20
2022-12-17T16:39:59.929Z,19.30
2022-12-17T16:42:27.801Z,19.20
2022-12-17T16:44:54.723Z,19.30
2022-12-17T16:47:21.628Z,19.20
2022-12-17T16:49:50.633Z,19.20
2022-12-17T16:52:17.594Z,19.30
2022-12-17T16:54:44.448Z,19.20
2022-12-17T16:57:11.352Z,19.20
2022-12-17T16:59:38.258Z,19.30
2022-12-17T17:02:05.420Z,19.30
2022-12-17T17:04:32.453Z,19.30
2022-12-17T17:07:00.787Z,19.30
2022-12-17T17:09:27.768Z,19.30
2022-12-17T17:11:59.072Z,19.30
2022-12-17T17:14:26.790Z,19.30
2022-12-17T17:16:53.787Z,19.40
2022-12-17T17:19:20.681Z,19.40
2022-12-17T17:21:54.553Z,19.40
2022-12-17T17:24:23.980Z,19.50
2022-12-17T17:26:51.550Z,19.60
2022-12-17T17:29:18.716Z,19.60
2022-12-17T17:32:09.314Z,19.60
2022-12-17T17:34:32.825Z,19.70
2022-12-17T17:36:59.922Z,19.70
2022-12-17T17:39:27.504Z,19.70
2022-12-17T17:41:54.554Z,19.80
2022-12-17T17:44:21.414Z,19.80
2022-12-17T17:46:48.483Z,19.80
2022-12-17T17:49:15.536Z,19.80
2022-12-17T17:54:30.873Z,20.00
2022-12-17T17:56:57.828Z,20.00
2022-12-17T17:59:31.221Z,20.00
2022-12-17T18:02:00.894Z,20.00
2022-12-17T18:04:28.283Z,20.00
2022-12-17T18:09:41.956Z,20.10
2022-12-17T18:12:27.280Z,20.10
2022-12-17T18:17:41.026Z,20.20
2022-12-17T18:20:09.589Z,20.10
2022-12-17T18:22:36.581Z,20.20
2022-12-17T18:25:03.604Z,20.20
2022-12-17T18:27:30.448Z,20.20
2022-12-17T18:29:57.241Z,20.20
2022-12-17T18:32:24.111Z,20.20
2022-12-17T18:34:50.999Z,20.30
2022-12-17T18:37:17.855Z,20.30
2022-12-17T18:39:44.691Z,20.30
2022-12-17T18:42:30.005Z,20.30
2022-12-17T18:44:56.823Z,20.40
2022-12-17T18:47:25.526Z,20.40
2022-12-17T18:49:52.528Z,20.30
2022-12-17T18:52:19.499Z,20.40
2022-12-17T18:54:46.336Z,20.40
2022-12-17T18:57:13.524Z,20.40
2022-12-17T18:59:41.053Z,20.40
2022-12-17T19:02:14.998Z,20.40
2022-12-17T19:04:42.039Z,20.50
2022-12-17T19:07:09.070Z,20.50
2022-12-17T19:09:36.554Z,20.50
2022-12-17T19:12:07.900Z,20.50
2022-12-17T19:14:34.983Z,20.50
2022-12-17T19:17:02.233Z,20.50
2022-12-17T19:19:29.513Z,20.60
2022-12-17T19:21:58.617Z,20.60
2022-12-17T19:24:25.577Z,20.60
2022-12-17T19:26:52.643Z,20.60
2022-12-17T19:29:20.917Z,20.50
2022-12-17T19:31:47.840Z,20.50
2022-12-17T19:34:16.649Z,20.60
2022-12-17T19:36:44.378Z,20.60
2022-12-17T19:39:13.770Z,20.60
2022-12-17T19:41:40.950Z,20.60
2022-12-17T19:44:11.303Z,20.50
2022-12-17T19:46:38.222Z,20.60
2022-12-17T19:49:05.649Z,20.60
2022-12-17T19:51:33.632Z,20.60
2022-12-17T19:54:06.542Z,20.60
2022-12-17T19:56:35.233Z,20.60
2022-12-17T19:59:07.744Z,20.60
2022-12-17T20:01:36.982Z,20.60
2022-12-17T20:04:04.659Z,20.60
2022-12-17T20:06:33.461Z,20.60
2022-12-17T20:09:01.383Z,20.60
2022-12-17T20:11:34.666Z,20.60
2022-12-17T20:14:06.801Z,20.60
2022-12-17T20:16:37.210Z,20.60
2022-12-17T20:19:06.575Z,20.60
2022-12-17T20:21:33.552Z,20.60
2022-12-17T20:24:00.472Z,20.60
2022-12-17T20:26:27.964Z,20.60
2022-12-17T20:28:55.199Z,20.60
2022-12-17T20:31:22.297Z,20.60
2022-12-17T20:33:49.257Z,20.60
2022-12-17T20:36:17.759Z,20.60
2022-12-17T20:38:45.166Z,20.60
2022-12-17T20:41:20.230Z,20.60
2022-12-17T20:43:47.351Z,20.60
2022-12-17T20:46:14.709Z,20.60
2022-12-17T20:48:43.111Z,20.60
2022-12-17T20:51:18.763Z,20.50
2022-12-17T20:53:47.340Z,20.60
2022-12-17T20:56:16.569Z,20.60
2022-12-17T20:58:43.809Z,20.50
2022-12-17T21:01:12.017Z,20.50
2022-12-17T21:03:39.287Z,20.50
2022-12-17T21:06:08.615Z,20.50
2022-12-17T21:08:36.155Z,20.50
2022-12-17T21:11:03.278Z,20.40
2022-12-17T21:13:30.209Z,20.40
2022-12-17T21:16:05.645Z,20.40
2022-12-17T21:18:33.394Z,20.40
2022-12-17T21:21:09.305Z,20.40
2022-12-17T21:23:37.552Z,20.40
2022-12-17T21:26:08.660Z,20.40
2022-12-17T21:28:39.089Z,20.30
2022-12-17T21:31:06.614Z,20.40
2022-12-17T21:33:33.605Z,20.40
2022-12-17T21:36:07.565Z,20.40
2022-12-17T21:38:34.902Z,20.40
2022-12-17T21:41:23.610Z,20.40
2022-12-17T21:43:54.636Z,20.40
2022-12-17T21:46:21.698Z,20.30
2022-12-17T21:48:49.161Z,20.30
2022-12-17T21:51:16.574Z,20.30
2022-12-17T21:53:43.806Z,20.30
2022-12-17T21:56:15.130Z,20.30
2022-12-17T21:58:43.700Z,20.30
2022-12-17T22:01:19.701Z,20.30
2022-12-17T22:03:54.060Z,20.30
2022-12-17T22:06:25.287Z,20.30
2022-12-17T22:09:01.839Z,20.20
2022-12-17T22:11:35.933Z,20.20
2022-12-17T22:14:08.186Z,20.20
2022-12-17T22:16:42.184Z,20.20
2022-12-17T22:19:10.722Z,20.20
2022-12-17T22:21:39.274Z,20.20
2022-12-17T22:24:06.922Z,20.20
2022-12-17T22:26:36.791Z,20.10
2022-12-17T22:29:03.718Z,20.10
2022-12-17T22:31:49.182Z,20.10
2022-12-17T22:35:07.348Z,20.10
2022-12-17T22:39:06.282Z,20.10
2022-12-17T22:43:07.542Z,20.10
2022-12-17T22:44:46.803Z,20.10
2022-12-17T22:45:42.723Z,20.00
2022-12-17T22:48:10.500Z,20.00
2022-12-17T22:50:43.974Z,20.00
2022-12-17T22:53:20.897Z,20.00
2022-12-17T22:55:48.956Z,20.00
2022-12-17T22:58:16.025Z,20.00
2022-12-17T23:00:43.122Z,20.00
2022-12-17T23:03:10.541Z,20.00
2022-12-17T23:05:37.571Z,20.00
2022-12-17T23:08:04.600Z,20.00
2022-12-17T23:10:31.417Z,20.00
2022-12-17T23:12:58.328Z,20.00
2022-12-17T23:15:34.461Z,20.00
2022-12-17T23:18:03.936Z,20.00
2022-12-17T23:20:32.894Z,20.00
2022-12-17T23:23:00.221Z,20.00
2022-12-17T23:25:27.764Z,20.00
2022-12-17T23:27:54.840Z,20.00
2022-12-17T23:30:22.621Z,20.00
2022-12-17T23:32:50.354Z,20.00
2022-12-17T23:35:17.466Z,20.00
2022-12-17T23:37:44.313Z,19.90
2022-12-17T23:40:12.549Z,19.90
2022-12-17T23:42:39.819Z,19.90
2022-12-17T23:45:07.779Z,20.00
2022-12-17T23:47:34.637Z,19.90
2022-12-17T23:50:01.478Z,19.90
2022-12-17T23:52:28.446Z,19.90
2022-12-17T23:54:55.509Z,19.90
2022-12-17T23:57:22.421Z,19.90
2022-12-17T23:59:49.261Z,19.90
